MMPB/PBC METAR and TAF weather

Enter ICAO airport designator
Station Type Date Time Source
MMPB METAR 2019/12/10 01:43 UTC NOAA

MMPB 100143Z 20004KT 8SM SKC 11/06 A3028 RMK HZY


Station Type Date Time Source
MMPB Decoded METAR 2019/12/10 01:43 UTC NOAA

Puebla, Pue., Mexico (MMPB) 19-03N 098-10W
Dec 09, 2019 - 08:43 PM EST / 2019.12.10 0143 UTC
Wind: from the SSW (200 degrees) at 5 MPH (4 KT):0
Visibility: 8 mile(s):0
Sky conditions: clear
Temperature: 51 F (11 C)
Dew Point: 42 F (6 C)
Relative Humidity: 71%
Pressure (altimeter): 30.28 in. Hg (1025 hPa)
ob: MMPB 100143Z 20004KT 8SM SKC 11/06 A3028 RMK HZY
cycle: 1

Station Type Date Time Source
MMPB TAF 2019/12/10 06:11 UTC NOAA

TAF MMPB 100504Z 1006/1106 27005KT P6SM SKC
FM101800 34010KT P6SM SCT030 SCT250
FM110500 34006KT P6SM SCT030

Example: see airport list